Hlavní strana
METAR-TAF:

METAR-TAF

Letiště :

Letiště Johannesburg

Johannesburg, Jihoafrická republika

zeměpisná šířka: 26-08S, zeměpisná délka: 028-14E, výška: 1694 m

Aktuální stav počasí

Zpráva byla vytvořena před 49 minutami, v 10:00 UTC
Východoseverovýchodní vítr 6 kt, proměnlivý mezi severním a východním
Teplota 15°C
Vlhkost vzduchu 41%
Tlak 1035 hPa
Viditelnost 10 km a více
Žádná oblačnost pod 1500 m, nevyskytují se cumulonimby.

METAR: FAOR 221000Z 06006KT 010V100 CAVOK 15/02 Q1035 NOSIG

Čas: 12:49 (10:49 UTC)

Předpověď počasí

Zpráva byla vytvořena před 6 hodinami a 49 minutami, v 04:00 UTC
Předpověď platná od 22 v 06 UTC do 23 v 12 UTC
Severoseverovýchodní vítr 7 kt
Viditelnost 10 km a více
Žádná oblačnost pod 1500 m, nevyskytují se cumulonimby.
Změna
od 22 v 18 UTC do 22 v 20 UTC
Severní vítr 8 kt

TAF: FAOR 220400Z 2206/2312 03007KT CAVOK BECMG 2218/2220 35008KT TX17/2212Z TN04/2304Z

Stav a předpovědi počasí z více než 4 000 letišť (zprávy METAR a TAF).

Červené a žluté tečky na mapě představují dostupné meteorologické stanice.

Když kurzor umístíte na tečku, zobrazí se název stanice.

Pak kliknutím zobrazíte stav a předpověď počasí.

Chcete-li změnit mapu, kliknutím na zelené tlačítko se znaménkem +mapu přiblížíte, kliknutím na zelené tlačítko se znaménkem – mapu oddálíte a kliknutím na zelené šipky přejdete na sousední mapy.


METAR-TAF: